sensor_id;sensor_type;location;lat;lon;timestamp;temperature;humidity
16823;DHT22;8528;49.976;11.858;2023-09-19T00:00:06;15.00;99.90
16823;DHT22;8528;49.976;11.858;2023-09-19T00:02:33;15.00;99.90
16823;DHT22;8528;49.976;11.858;2023-09-19T00:05:00;14.90;99.90
16823;DHT22;8528;49.976;11.858;2023-09-19T00:07:31;14.90;99.90
16823;DHT22;8528;49.976;11.858;2023-09-19T00:09:58;14.90;99.90
16823;DHT22;8528;49.976;11.858;2023-09-19T00:12:25;14.90;99.90
16823;DHT22;8528;49.976;11.858;2023-09-19T00:14:51;14.90;99.90
16823;DHT22;8528;49.976;11.858;2023-09-19T00:17:19;14.90;99.90
16823;DHT22;8528;49.976;11.858;2023-09-19T00:19:46;14.90;99.90
16823;DHT22;8528;49.976;11.858;2023-09-19T00:22:18;14.90;99.90
16823;DHT22;8528;49.976;11.858;2023-09-19T00:24:45;14.90;99.90
16823;DHT22;8528;49.976;11.858;2023-09-19T00:27:12;14.90;99.90
16823;DHT22;8528;49.976;11.858;2023-09-19T00:29:39;14.90;99.90
16823;DHT22;8528;49.976;11.858;2023-09-19T00:32:07;14.90;99.90
16823;DHT22;8528;49.976;11.858;2023-09-19T00:34:34;14.90;99.90
16823;DHT22;8528;49.976;11.858;2023-09-19T00:37:01;15.00;99.90
16823;DHT22;8528;49.976;11.858;2023-09-19T00:39:28;15.00;99.90
16823;DHT22;8528;49.976;11.858;2023-09-19T00:41:54;15.00;99.90
16823;DHT22;8528;49.976;11.858;2023-09-19T00:44:21;15.10;99.90
16823;DHT22;8528;49.976;11.858;2023-09-19T00:46:50;15.10;99.90
16823;DHT22;8528;49.976;11.858;2023-09-19T00:49:18;15.10;99.90
16823;DHT22;8528;49.976;11.858;2023-09-19T00:51:47;15.20;99.90
16823;DHT22;8528;49.976;11.858;2023-09-19T00:54:15;15.20;99.90
16823;DHT22;8528;49.976;11.858;2023-09-19T00:56:45;15.20;99.90
16823;DHT22;8528;49.976;11.858;2023-09-19T00:59:12;15.20;99.90
16823;DHT22;8528;49.976;11.858;2023-09-19T01:01:39;15.20;99.90
16823;DHT22;8528;49.976;11.858;2023-09-19T01:04:06;15.20;99.90
16823;DHT22;8528;49.976;11.858;2023-09-19T01:06:33;15.30;99.90
16823;DHT22;8528;49.976;11.858;2023-09-19T01:09:00;15.40;99.90
16823;DHT22;8528;49.976;11.858;2023-09-19T01:11:39;15.30;99.90
16823;DHT22;8528;49.976;11.858;2023-09-19T01:14:32;15.20;99.90
16823;DHT22;8528;49.976;11.858;2023-09-19T01:17:05;15.20;99.90
16823;DHT22;8528;49.976;11.858;2023-09-19T01:22:28;15.10;99.90
16823;DHT22;8528;49.976;11.858;2023-09-19T01:30:35;15.10;99.90
16823;DHT22;8528;49.976;11.858;2023-09-19T01:33:06;15.10;99.90
16823;DHT22;8528;49.976;11.858;2023-09-19T01:35:33;15.10;99.90
16823;DHT22;8528;49.976;11.858;2023-09-19T01:38:00;15.10;99.90
16823;DHT22;8528;49.976;11.858;2023-09-19T01:40:27;15.00;99.90
16823;DHT22;8528;49.976;11.858;2023-09-19T01:43:47;15.00;99.90
16823;DHT22;8528;49.976;11.858;2023-09-19T01:46:14;15.00;99.90
16823;DHT22;8528;49.976;11.858;2023-09-19T01:49:13;15.00;99.90
16823;DHT22;8528;49.976;11.858;2023-09-19T01:54:45;14.90;99.90
16823;DHT22;8528;49.976;11.858;2023-09-19T01:57:28;15.00;99.90
16823;DHT22;8528;49.976;11.858;2023-09-19T02:00:06;15.00;99.90
16823;DHT22;8528;49.976;11.858;2023-09-19T02:02:38;15.00;99.90
16823;DHT22;8528;49.976;11.858;2023-09-19T02:05:05;15.00;99.90
16823;DHT22;8528;49.976;11.858;2023-09-19T02:07:32;15.00;99.90
16823;DHT22;8528;49.976;11.858;2023-09-19T02:10:00;15.00;99.90
16823;DHT22;8528;49.976;11.858;2023-09-19T02:12:27;15.00;99.90
16823;DHT22;8528;49.976;11.858;2023-09-19T02:14:54;15.00;99.90
16823;DHT22;8528;49.976;11.858;2023-09-19T02:17:20;14.90;99.90
16823;DHT22;8528;49.976;11.858;2023-09-19T02:19:47;14.90;99.90
16823;DHT22;8528;49.976;11.858;2023-09-19T02:22:14;14.90;99.90
16823;DHT22;8528;49.976;11.858;2023-09-19T02:24:43;14.90;99.90
16823;DHT22;8528;49.976;11.858;2023-09-19T02:27:09;14.90;99.90
16823;DHT22;8528;49.976;11.858;2023-09-19T02:29:39;14.90;99.90
16823;DHT22;8528;49.976;11.858;2023-09-19T02:32:06;14.90;99.90
16823;DHT22;8528;49.976;11.858;2023-09-19T02:34:33;14.90;99.90
16823;DHT22;8528;49.976;11.858;2023-09-19T02:37:03;14.90;99.90
16823;DHT22;8528;49.976;11.858;2023-09-19T02:39:32;14.80;99.90
16823;DHT22;8528;49.976;11.858;2023-09-19T02:41:59;14.80;99.90
16823;DHT22;8528;49.976;11.858;2023-09-19T02:44:26;14.80;99.90
16823;DHT22;8528;49.976;11.858;2023-09-19T02:46:53;14.80;99.90
16823;DHT22;8528;49.976;11.858;2023-09-19T02:49:20;14.70;99.90
16823;DHT22;8528;49.976;11.858;2023-09-19T02:51:47;14.70;99.90
16823;DHT22;8528;49.976;11.858;2023-09-19T02:54:14;14.80;99.90
16823;DHT22;8528;49.976;11.858;2023-09-19T02:56:42;14.80;99.90
16823;DHT22;8528;49.976;11.858;2023-09-19T02:59:09;14.80;99.90
16823;DHT22;8528;49.976;11.858;2023-09-19T03:01:38;14.80;99.90
16823;DHT22;8528;49.976;11.858;2023-09-19T03:04:05;14.80;99.90
16823;DHT22;8528;49.976;11.858;2023-09-19T03:06:35;14.70;99.90
16823;DHT22;8528;49.976;11.858;2023-09-19T03:09:02;14.70;99.90
16823;DHT22;8528;49.976;11.858;2023-09-19T03:11:32;14.70;99.90
16823;DHT22;8528;49.976;11.858;2023-09-19T03:14:00;14.80;99.90
16823;DHT22;8528;49.976;11.858;2023-09-19T03:16:26;14.80;99.90
16823;DHT22;8528;49.976;11.858;2023-09-19T03:18:53;14.80;99.90
16823;DHT22;8528;49.976;11.858;2023-09-19T03:21:20;14.80;99.90
16823;DHT22;8528;49.976;11.858;2023-09-19T03:23:48;14.90;99.90
16823;DHT22;8528;49.976;11.858;2023-09-19T03:26:15;14.90;99.90
16823;DHT22;8528;49.976;11.858;2023-09-19T03:28:42;14.90;99.90
16823;DHT22;8528;49.976;11.858;2023-09-19T03:31:10;14.90;99.90
16823;DHT22;8528;49.976;11.858;2023-09-19T03:33:38;14.80;99.90
16823;DHT22;8528;49.976;11.858;2023-09-19T03:36:05;14.70;99.90
16823;DHT22;8528;49.976;11.858;2023-09-19T03:38:32;14.80;99.90
16823;DHT22;8528;49.976;11.858;2023-09-19T03:41:01;14.80;99.90
16823;DHT22;8528;49.976;11.858;2023-09-19T03:43:28;14.80;99.90
16823;DHT22;8528;49.976;11.858;2023-09-19T03:45:55;14.80;99.90
16823;DHT22;8528;49.976;11.858;2023-09-19T03:48:22;14.70;99.90
16823;DHT22;8528;49.976;11.858;2023-09-19T03:50:49;14.70;99.90
16823;DHT22;8528;49.976;11.858;2023-09-19T03:53:17;14.60;99.90
16823;DHT22;8528;49.976;11.858;2023-09-19T03:55:45;14.60;99.90
16823;DHT22;8528;49.976;11.858;2023-09-19T03:58:13;14.60;99.90
16823;DHT22;8528;49.976;11.858;2023-09-19T04:00:40;14.50;99.90
16823;DHT22;8528;49.976;11.858;2023-09-19T04:03:07;14.50;99.90
16823;DHT22;8528;49.976;11.858;2023-09-19T04:05:34;14.60;99.90
16823;DHT22;8528;49.976;11.858;2023-09-19T04:08:01;14.60;99.90
16823;DHT22;8528;49.976;11.858;2023-09-19T04:10:28;14.60;99.90
16823;DHT22;8528;49.976;11.858;2023-09-19T04:12:55;14.60;99.90
16823;DHT22;8528;49.976;11.858;2023-09-19T04:15:23;14.50;99.90
16823;DHT22;8528;49.976;11.858;2023-09-19T04:17:51;14.50;99.90
16823;DHT22;8528;49.976;11.858;2023-09-19T04:20:18;14.50;99.90
16823;DHT22;8528;49.976;11.858;2023-09-19T04:22:49;14.60;99.90
16823;DHT22;8528;49.976;11.858;2023-09-19T04:25:17;14.60;99.90
16823;DHT22;8528;49.976;11.858;2023-09-19T04:27:45;14.60;99.90
16823;DHT22;8528;49.976;11.858;2023-09-19T04:30:13;14.60;99.90
16823;DHT22;8528;49.976;11.858;2023-09-19T04:32:41;14.60;99.90
16823;DHT22;8528;49.976;11.858;2023-09-19T04:35:09;14.60;99.90
16823;DHT22;8528;49.976;11.858;2023-09-19T04:37:40;14.60;99.90
16823;DHT22;8528;49.976;11.858;2023-09-19T04:40:11;14.60;99.90
16823;DHT22;8528;49.976;11.858;2023-09-19T04:42:53;14.50;99.90
16823;DHT22;8528;49.976;11.858;2023-09-19T04:45:24;14.50;99.90
16823;DHT22;8528;49.976;11.858;2023-09-19T04:47:50;14.50;99.90
16823;DHT22;8528;49.976;11.858;2023-09-19T04:50:17;14.50;99.90
16823;DHT22;8528;49.976;11.858;2023-09-19T04:52:45;14.50;99.90
16823;DHT22;8528;49.976;11.858;2023-09-19T04:55:13;14.50;99.90
16823;DHT22;8528;49.976;11.858;2023-09-19T04:57:48;14.50;99.90
16823;DHT22;8528;49.976;11.858;2023-09-19T05:00:16;14.50;99.90
16823;DHT22;8528;49.976;11.858;2023-09-19T05:02:48;14.60;99.90
16823;DHT22;8528;49.976;11.858;2023-09-19T05:05:16;14.60;99.90
16823;DHT22;8528;49.976;11.858;2023-09-19T05:07:46;14.60;99.90
16823;DHT22;8528;49.976;11.858;2023-09-19T05:10:14;14.60;99.90
16823;DHT22;8528;49.976;11.858;2023-09-19T05:12:41;14.60;99.90
16823;DHT22;8528;49.976;11.858;2023-09-19T05:15:10;14.60;99.90
16823;DHT22;8528;49.976;11.858;2023-09-19T05:17:36;14.60;99.90
16823;DHT22;8528;49.976;11.858;2023-09-19T05:20:04;14.70;99.90
16823;DHT22;8528;49.976;11.858;2023-09-19T05:22:43;14.70;99.90
16823;DHT22;8528;49.976;11.858;2023-09-19T05:25:10;14.70;99.90
16823;DHT22;8528;49.976;11.858;2023-09-19T05:27:37;14.70;99.90
16823;DHT22;8528;49.976;11.858;2023-09-19T05:30:05;14.70;99.90
16823;DHT22;8528;49.976;11.858;2023-09-19T05:32:31;14.70;99.90
16823;DHT22;8528;49.976;11.858;2023-09-19T05:34:58;14.70;99.90
16823;DHT22;8528;49.976;11.858;2023-09-19T05:37:25;14.70;99.90
16823;DHT22;8528;49.976;11.858;2023-09-19T05:39:53;14.80;99.90
16823;DHT22;8528;49.976;11.858;2023-09-19T05:42:20;14.70;99.90
16823;DHT22;8528;49.976;11.858;2023-09-19T05:44:47;14.70;99.90
16823;DHT22;8528;49.976;11.858;2023-09-19T05:47:14;14.70;99.90
16823;DHT22;8528;49.976;11.858;2023-09-19T05:49:40;14.70;99.90
16823;DHT22;8528;49.976;11.858;2023-09-19T05:52:08;14.70;99.90
16823;DHT22;8528;49.976;11.858;2023-09-19T05:54:35;14.80;99.90
16823;DHT22;8528;49.976;11.858;2023-09-19T05:57:02;14.70;99.90
16823;DHT22;8528;49.976;11.858;2023-09-19T05:59:29;14.70;99.90
16823;DHT22;8528;49.976;11.858;2023-09-19T06:01:56;14.70;99.90
16823;DHT22;8528;49.976;11.858;2023-09-19T06:04:23;14.80;99.90
16823;DHT22;8528;49.976;11.858;2023-09-19T06:06:50;14.70;99.90
16823;DHT22;8528;49.976;11.858;2023-09-19T06:09:17;14.80;99.90
16823;DHT22;8528;49.976;11.858;2023-09-19T06:11:49;14.90;99.90
16823;DHT22;8528;49.976;11.858;2023-09-19T06:14:16;14.90;99.90
16823;DHT22;8528;49.976;11.858;2023-09-19T06:16:44;14.90;99.90
16823;DHT22;8528;49.976;11.858;2023-09-19T06:19:11;14.80;99.90
16823;DHT22;8528;49.976;11.858;2023-09-19T06:21:38;14.90;99.90
16823;DHT22;8528;49.976;11.858;2023-09-19T06:24:06;14.90;99.90
16823;DHT22;8528;49.976;11.858;2023-09-19T06:26:32;15.00;99.90
16823;DHT22;8528;49.976;11.858;2023-09-19T06:28:59;15.10;99.90
16823;DHT22;8528;49.976;11.858;2023-09-19T06:31:26;15.30;99.90
16823;DHT22;8528;49.976;11.858;2023-09-19T06:33:53;15.40;99.90
16823;DHT22;8528;49.976;11.858;2023-09-19T06:36:20;15.60;99.90
16823;DHT22;8528;49.976;11.858;2023-09-19T06:38:48;15.70;99.90
16823;DHT22;8528;49.976;11.858;2023-09-19T06:41:18;15.60;99.90
16823;DHT22;8528;49.976;11.858;2023-09-19T06:43:45;15.50;99.90
16823;DHT22;8528;49.976;11.858;2023-09-19T06:46:12;15.40;99.90
16823;DHT22;8528;49.976;11.858;2023-09-19T06:48:39;15.40;99.90
16823;DHT22;8528;49.976;11.858;2023-09-19T06:51:07;15.30;99.90
16823;DHT22;8528;49.976;11.858;2023-09-19T06:53:34;15.30;99.90
16823;DHT22;8528;49.976;11.858;2023-09-19T06:56:02;15.40;99.90
16823;DHT22;8528;49.976;11.858;2023-09-19T06:58:29;15.40;99.90
16823;DHT22;8528;49.976;11.858;2023-09-19T07:00:58;15.50;99.90
16823;DHT22;8528;49.976;11.858;2023-09-19T07:03:25;15.80;99.90
16823;DHT22;8528;49.976;11.858;2023-09-19T07:05:53;16.90;99.90
16823;DHT22;8528;49.976;11.858;2023-09-19T07:08:22;18.10;99.90
16823;DHT22;8528;49.976;11.858;2023-09-19T07:10:49;19.80;99.90
16823;DHT22;8528;49.976;11.858;2023-09-19T07:13:16;21.60;99.90
16823;DHT22;8528;49.976;11.858;2023-09-19T07:15:44;22.80;99.90
16823;DHT22;8528;49.976;11.858;2023-09-19T07:18:14;23.00;99.90
16823;DHT22;8528;49.976;11.858;2023-09-19T07:20:44;22.60;99.90
16823;DHT22;8528;49.976;11.858;2023-09-19T07:23:21;22.30;99.90
16823;DHT22;8528;49.976;11.858;2023-09-19T07:25:49;21.90;99.90
16823;DHT22;8528;49.976;11.858;2023-09-19T07:28:17;22.80;99.90
16823;DHT22;8528;49.976;11.858;2023-09-19T07:30:44;24.50;99.90
16823;DHT22;8528;49.976;11.858;2023-09-19T07:33:11;25.40;97.60
16823;DHT22;8528;49.976;11.858;2023-09-19T07:35:40;26.50;94.40
16823;DHT22;8528;49.976;11.858;2023-09-19T07:38:12;27.40;90.90
16823;DHT22;8528;49.976;11.858;2023-09-19T07:40:39;27.60;87.40
16823;DHT22;8528;49.976;11.858;2023-09-19T07:43:06;28.70;80.10
16823;DHT22;8528;49.976;11.858;2023-09-19T07:45:33;28.90;75.40
16823;DHT22;8528;49.976;11.858;2023-09-19T07:48:00;28.60;71.10
16823;DHT22;8528;49.976;11.858;2023-09-19T07:50:32;26.70;75.00
16823;DHT22;8528;49.976;11.858;2023-09-19T07:52:59;25.00;81.50
16823;DHT22;8528;49.976;11.858;2023-09-19T07:55:26;24.10;86.70
16823;DHT22;8528;49.976;11.858;2023-09-19T07:57:53;24.30;86.30
16823;DHT22;8528;49.976;11.858;2023-09-19T08:00:20;24.30;87.10
16823;DHT22;8528;49.976;11.858;2023-09-19T08:02:47;24.40;86.80
16823;DHT22;8528;49.976;11.858;2023-09-19T08:05:24;24.50;87.30
16823;DHT22;8528;49.976;11.858;2023-09-19T08:07:51;25.90;82.30
16823;DHT22;8528;49.976;11.858;2023-09-19T08:10:19;26.00;82.10
16823;DHT22;8528;49.976;11.858;2023-09-19T08:12:48;26.70;81.20
16823;DHT22;8528;49.976;11.858;2023-09-19T08:15:17;27.50;75.90
16823;DHT22;8528;49.976;11.858;2023-09-19T08:17:44;27.90;75.00
16823;DHT22;8528;49.976;11.858;2023-09-19T08:20:12;27.40;73.60
16823;DHT22;8528;49.976;11.858;2023-09-19T08:22:51;25.90;76.70
16823;DHT22;8528;49.976;11.858;2023-09-19T08:25:22;24.60;81.70
16823;DHT22;8528;49.976;11.858;2023-09-19T08:27:49;23.30;85.50
16823;DHT22;8528;49.976;11.858;2023-09-19T08:30:19;22.70;89.00
16823;DHT22;8528;49.976;11.858;2023-09-19T08:32:51;22.20;90.70
16823;DHT22;8528;49.976;11.858;2023-09-19T08:35:18;22.50;90.30
16823;DHT22;8528;49.976;11.858;2023-09-19T08:37:46;22.80;90.40
16823;DHT22;8528;49.976;11.858;2023-09-19T08:40:13;23.40;88.40
16823;DHT22;8528;49.976;11.858;2023-09-19T08:42:54;24.30;83.80
16823;DHT22;8528;49.976;11.858;2023-09-19T08:45:21;25.70;81.10
16823;DHT22;8528;49.976;11.858;2023-09-19T08:48:00;26.20;78.30
16823;DHT22;8528;49.976;11.858;2023-09-19T08:50:33;26.30;78.00
16823;DHT22;8528;49.976;11.858;2023-09-19T08:53:10;26.40;73.70
16823;DHT22;8528;49.976;11.858;2023-09-19T08:55:40;25.00;77.80
16823;DHT22;8528;49.976;11.858;2023-09-19T08:58:10;23.70;82.10
16823;DHT22;8528;49.976;11.858;2023-09-19T09:00:37;23.50;84.40
16823;DHT22;8528;49.976;11.858;2023-09-19T09:03:09;24.00;82.70
16823;DHT22;8528;49.976;11.858;2023-09-19T09:05:37;24.40;81.10
16823;DHT22;8528;49.976;11.858;2023-09-19T09:08:07;24.70;79.10
16823;DHT22;8528;49.976;11.858;2023-09-19T09:10:35;24.40;80.70
16823;DHT22;8528;49.976;11.858;2023-09-19T09:13:04;23.60;82.30
16823;DHT22;8528;49.976;11.858;2023-09-19T09:15:36;23.40;85.30
16823;DHT22;8528;49.976;11.858;2023-09-19T09:18:04;25.00;81.70
16823;DHT22;8528;49.976;11.858;2023-09-19T09:20:32;26.90;74.40
16823;DHT22;8528;49.976;11.858;2023-09-19T09:22:59;29.00;69.40
16823;DHT22;8528;49.976;11.858;2023-09-19T09:25:47;31.10;65.20
16823;DHT22;8528;49.976;11.858;2023-09-19T09:28:19;32.60;58.40
16823;DHT22;8528;49.976;11.858;2023-09-19T09:30:47;33.10;53.70
16823;DHT22;8528;49.976;11.858;2023-09-19T09:33:14;32.30;53.60
16823;DHT22;8528;49.976;11.858;2023-09-19T09:35:54;30.70;57.20
16823;DHT22;8528;49.976;11.858;2023-09-19T09:38:25;29.90;56.70
16823;DHT22;8528;49.976;11.858;2023-09-19T09:40:55;28.60;60.20
16823;DHT22;8528;49.976;11.858;2023-09-19T09:43:37;27.70;61.70
16823;DHT22;8528;49.976;11.858;2023-09-19T09:46:08;26.20;65.40
16823;DHT22;8528;49.976;11.858;2023-09-19T09:48:59;24.80;69.10
16823;DHT22;8528;49.976;11.858;2023-09-19T09:52:06;23.60;74.40
16823;DHT22;8528;49.976;11.858;2023-09-19T09:55:10;22.40;80.20
16823;DHT22;8528;49.976;11.858;2023-09-19T09:57:37;21.80;83.80
16823;DHT22;8528;49.976;11.858;2023-09-19T10:00:10;21.60;86.10
16823;DHT22;8528;49.976;11.858;2023-09-19T10:02:42;21.20;88.30
16823;DHT22;8528;49.976;11.858;2023-09-19T10:05:19;20.80;90.50
16823;DHT22;8528;49.976;11.858;2023-09-19T10:07:51;20.50;91.90
16823;DHT22;8528;49.976;11.858;2023-09-19T10:10:30;20.50;92.10
16823;DHT22;8528;49.976;11.858;2023-09-19T10:13:06;21.00;92.10
16823;DHT22;8528;49.976;11.858;2023-09-19T10:15:34;21.20;90.20
16823;DHT22;8528;49.976;11.858;2023-09-19T10:18:05;21.80;87.20
16823;DHT22;8528;49.976;11.858;2023-09-19T10:20:32;22.60;85.50
16823;DHT22;8528;49.976;11.858;2023-09-19T10:23:09;23.10;82.60
16823;DHT22;8528;49.976;11.858;2023-09-19T10:25:41;23.20;81.30
16823;DHT22;8528;49.976;11.858;2023-09-19T10:28:28;22.60;82.60
16823;DHT22;8528;49.976;11.858;2023-09-19T10:30:56;21.80;85.30
16823;DHT22;8528;49.976;11.858;2023-09-19T10:33:25;21.00;90.00
16823;DHT22;8528;49.976;11.858;2023-09-19T10:35:59;20.40;91.10
16823;DHT22;8528;49.976;11.858;2023-09-19T10:38:28;20.10;92.20
16823;DHT22;8528;49.976;11.858;2023-09-19T10:40:56;19.90;92.50
16823;DHT22;8528;49.976;11.858;2023-09-19T10:43:32;19.80;93.10
16823;DHT22;8528;49.976;11.858;2023-09-19T10:46:07;19.70;93.50
16823;DHT22;8528;49.976;11.858;2023-09-19T10:48:37;19.70;94.70
16823;DHT22;8528;49.976;11.858;2023-09-19T10:51:16;20.40;92.80
16823;DHT22;8528;49.976;11.858;2023-09-19T10:56:26;23.40;80.50
16823;DHT22;8528;49.976;11.858;2023-09-19T10:59:15;23.50;79.70
16823;DHT22;8528;49.976;11.858;2023-09-19T11:01:47;23.00;80.50
16823;DHT22;8528;49.976;11.858;2023-09-19T11:04:23;23.50;80.60
16823;DHT22;8528;49.976;11.858;2023-09-19T11:07:08;24.30;75.90
16823;DHT22;8528;49.976;11.858;2023-09-19T11:09:51;24.50;77.30
16823;DHT22;8528;49.976;11.858;2023-09-19T11:26:49;22.40;78.80
16823;DHT22;8528;49.976;11.858;2023-09-19T11:29:29;22.10;80.30
16823;DHT22;8528;49.976;11.858;2023-09-19T11:31:57;21.80;82.10
16823;DHT22;8528;49.976;11.858;2023-09-19T11:39:38;22.20;81.80
16823;DHT22;8528;49.976;11.858;2023-09-19T11:42:43;23.70;76.20
16823;DHT22;8528;49.976;11.858;2023-09-19T11:48:24;26.20;69.60
16823;DHT22;8528;49.976;11.858;2023-09-19T11:50:54;27.80;65.60
16823;DHT22;8528;49.976;11.858;2023-09-19T11:53:22;29.60;59.30
16823;DHT22;8528;49.976;11.858;2023-09-19T11:55:50;30.00;57.70
16823;DHT22;8528;49.976;11.858;2023-09-19T11:58:19;30.20;56.40
16823;DHT22;8528;49.976;11.858;2023-09-19T12:00:54;30.90;53.60
16823;DHT22;8528;49.976;11.858;2023-09-19T12:03:24;30.70;54.00
16823;DHT22;8528;49.976;11.858;2023-09-19T12:05:58;30.20;54.40
16823;DHT22;8528;49.976;11.858;2023-09-19T12:08:26;30.30;54.20
16823;DHT22;8528;49.976;11.858;2023-09-19T12:10:54;29.40;54.00
16823;DHT22;8528;49.976;11.858;2023-09-19T12:13:24;27.30;58.10
16823;DHT22;8528;49.976;11.858;2023-09-19T12:15:52;25.70;60.60
16823;DHT22;8528;49.976;11.858;2023-09-19T12:18:27;25.10;63.50
16823;DHT22;8528;49.976;11.858;2023-09-19T12:20:55;26.00;60.40
16823;DHT22;8528;49.976;11.858;2023-09-19T12:23:22;26.80;59.30
16823;DHT22;8528;49.976;11.858;2023-09-19T12:25:49;27.50;57.80
16823;DHT22;8528;49.976;11.858;2023-09-19T12:28:19;26.90;58.70
16823;DHT22;8528;49.976;11.858;2023-09-19T12:30:50;27.30;57.50
16823;DHT22;8528;49.976;11.858;2023-09-19T12:33:19;27.70;57.90
16823;DHT22;8528;49.976;11.858;2023-09-19T12:35:47;26.80;57.80
16823;DHT22;8528;49.976;11.858;2023-09-19T12:38:27;25.60;62.30
16823;DHT22;8528;49.976;11.858;2023-09-19T12:40:56;24.60;62.80
16823;DHT22;8528;49.976;11.858;2023-09-19T12:43:23;24.30;66.40
16823;DHT22;8528;49.976;11.858;2023-09-19T12:45:50;24.90;63.60
16823;DHT22;8528;49.976;11.858;2023-09-19T12:48:22;24.70;63.50
16823;DHT22;8528;49.976;11.858;2023-09-19T12:53:44;26.40;64.20
16823;DHT22;8528;49.976;11.858;2023-09-19T12:56:14;27.90;58.50
16823;DHT22;8528;49.976;11.858;2023-09-19T13:01:22;27.60;55.50
16823;DHT22;8528;49.976;11.858;2023-09-19T13:04:18;26.90;54.70
16823;DHT22;8528;49.976;11.858;2023-09-19T13:06:47;26.60;56.80
16823;DHT22;8528;49.976;11.858;2023-09-19T13:09:17;27.50;56.70
16823;DHT22;8528;49.976;11.858;2023-09-19T13:11:44;28.30;52.70
16823;DHT22;8528;49.976;11.858;2023-09-19T13:14:22;28.70;51.50
16823;DHT22;8528;49.976;11.858;2023-09-19T13:19:40;26.90;55.50
16823;DHT22;8528;49.976;11.858;2023-09-19T13:25:12;25.30;59.40
16823;DHT22;8528;49.976;11.858;2023-09-19T13:27:50;25.60;57.60
16823;DHT22;8528;49.976;11.858;2023-09-19T13:30:20;26.20;59.30
16823;DHT22;8528;49.976;11.858;2023-09-19T13:32:47;27.30;56.70
16823;DHT22;8528;49.976;11.858;2023-09-19T13:35:15;28.20;54.90
16823;DHT22;8528;49.976;11.858;2023-09-19T13:37:43;28.80;50.60
16823;DHT22;8528;49.976;11.858;2023-09-19T13:40:14;27.80;52.20
16823;DHT22;8528;49.976;11.858;2023-09-19T13:42:42;26.80;55.00
16823;DHT22;8528;49.976;11.858;2023-09-19T13:45:09;26.90;55.30
16823;DHT22;8528;49.976;11.858;2023-09-19T13:47:42;26.80;54.90
16823;DHT22;8528;49.976;11.858;2023-09-19T13:50:30;26.60;54.80
16823;DHT22;8528;49.976;11.858;2023-09-19T13:52:57;26.20;56.30
16823;DHT22;8528;49.976;11.858;2023-09-19T13:55:27;26.40;57.10
16823;DHT22;8528;49.976;11.858;2023-09-19T13:57:54;26.60;55.40
16823;DHT22;8528;49.976;11.858;2023-09-19T14:00:23;25.80;56.60
16823;DHT22;8528;49.976;11.858;2023-09-19T14:02:50;24.30;58.90
16823;DHT22;8528;49.976;11.858;2023-09-19T14:05:18;23.10;63.10
16823;DHT22;8528;49.976;11.858;2023-09-19T14:07:47;22.10;65.20
16823;DHT22;8528;49.976;11.858;2023-09-19T14:10:14;21.50;67.00
16823;DHT22;8528;49.976;11.858;2023-09-19T14:12:44;21.00;70.30
16823;DHT22;8528;49.976;11.858;2023-09-19T14:15:11;20.60;72.50
16823;DHT22;8528;49.976;11.858;2023-09-19T14:17:59;20.40;73.70
16823;DHT22;8528;49.976;11.858;2023-09-19T14:20:27;20.30;74.70
16823;DHT22;8528;49.976;11.858;2023-09-19T14:23:15;20.30;74.00
16823;DHT22;8528;49.976;11.858;2023-09-19T14:25:42;20.30;74.20
16823;DHT22;8528;49.976;11.858;2023-09-19T14:28:09;20.30;74.10
16823;DHT22;8528;49.976;11.858;2023-09-19T14:30:36;20.10;74.50
16823;DHT22;8528;49.976;11.858;2023-09-19T14:33:04;19.90;74.30
16823;DHT22;8528;49.976;11.858;2023-09-19T14:35:32;19.50;75.50
16823;DHT22;8528;49.976;11.858;2023-09-19T14:37:59;19.30;76.80
16823;DHT22;8528;49.976;11.858;2023-09-19T14:40:26;19.30;77.40
16823;DHT22;8528;49.976;11.858;2023-09-19T14:42:53;19.30;77.50
16823;DHT22;8528;49.976;11.858;2023-09-19T14:45:20;19.30;77.50
16823;DHT22;8528;49.976;11.858;2023-09-19T14:47:48;19.30;76.60
16823;DHT22;8528;49.976;11.858;2023-09-19T14:50:15;19.10;78.10
16823;DHT22;8528;49.976;11.858;2023-09-19T14:52:42;19.00;79.50
16823;DHT22;8528;49.976;11.858;2023-09-19T14:55:11;18.90;80.90
16823;DHT22;8528;49.976;11.858;2023-09-19T14:57:41;18.80;80.30
16823;DHT22;8528;49.976;11.858;2023-09-19T15:00:12;18.80;80.30
16823;DHT22;8528;49.976;11.858;2023-09-19T15:02:39;18.70;78.50
16823;DHT22;8528;49.976;11.858;2023-09-19T15:05:12;18.70;79.30
16823;DHT22;8528;49.976;11.858;2023-09-19T15:07:40;18.70;78.40
16823;DHT22;8528;49.976;11.858;2023-09-19T15:10:07;18.60;79.10
16823;DHT22;8528;49.976;11.858;2023-09-19T15:12:36;18.50;79.90
16823;DHT22;8528;49.976;11.858;2023-09-19T15:15:05;18.40;80.00
16823;DHT22;8528;49.976;11.858;2023-09-19T15:17:36;18.40;79.80
16823;DHT22;8528;49.976;11.858;2023-09-19T15:20:04;18.30;81.10
16823;DHT22;8528;49.976;11.858;2023-09-19T15:22:36;18.20;82.30
16823;DHT22;8528;49.976;11.858;2023-09-19T15:25:03;18.20;82.30
16823;DHT22;8528;49.976;11.858;2023-09-19T15:27:30;18.10;83.10
16823;DHT22;8528;49.976;11.858;2023-09-19T15:29:57;18.10;83.30
16823;DHT22;8528;49.976;11.858;2023-09-19T15:32:25;18.10;83.20
16823;DHT22;8528;49.976;11.858;2023-09-19T15:34:51;18.00;84.10
16823;DHT22;8528;49.976;11.858;2023-09-19T15:37:18;18.00;83.70
16823;DHT22;8528;49.976;11.858;2023-09-19T15:39:47;17.90;84.20
16823;DHT22;8528;49.976;11.858;2023-09-19T15:42:14;17.80;85.70
16823;DHT22;8528;49.976;11.858;2023-09-19T15:44:42;17.70;86.50
16823;DHT22;8528;49.976;11.858;2023-09-19T15:47:11;17.60;87.50
16823;DHT22;8528;49.976;11.858;2023-09-19T15:49:38;17.50;87.80
16823;DHT22;8528;49.976;11.858;2023-09-19T15:52:05;17.50;88.30
16823;DHT22;8528;49.976;11.858;2023-09-19T15:54:32;17.50;88.60
16823;DHT22;8528;49.976;11.858;2023-09-19T15:57:00;17.50;89.40
16823;DHT22;8528;49.976;11.858;2023-09-19T15:59:26;17.50;89.30
16823;DHT22;8528;49.976;11.858;2023-09-19T16:01:53;17.40;90.10
16823;DHT22;8528;49.976;11.858;2023-09-19T16:04:21;17.30;90.50
16823;DHT22;8528;49.976;11.858;2023-09-19T16:06:47;17.30;90.70
16823;DHT22;8528;49.976;11.858;2023-09-19T16:09:15;17.30;90.80
16823;DHT22;8528;49.976;11.858;2023-09-19T16:11:42;17.30;91.00
16823;DHT22;8528;49.976;11.858;2023-09-19T16:14:10;17.30;91.10
16823;DHT22;8528;49.976;11.858;2023-09-19T16:16:41;17.20;91.90
16823;DHT22;8528;49.976;11.858;2023-09-19T16:19:08;17.20;92.10
16823;DHT22;8528;49.976;11.858;2023-09-19T16:21:38;17.20;92.10
16823;DHT22;8528;49.976;11.858;2023-09-19T16:24:09;17.20;92.50
16823;DHT22;8528;49.976;11.858;2023-09-19T16:26:37;17.20;92.60
16823;DHT22;8528;49.976;11.858;2023-09-19T16:29:04;17.10;92.40
16823;DHT22;8528;49.976;11.858;2023-09-19T16:31:31;17.10;92.80
16823;DHT22;8528;49.976;11.858;2023-09-19T16:34:00;17.00;93.20